EXS56AT EGBB-LEPA
Flight info
| Callsign | EXS56AT |
|---|---|
| Flight time | N/A |
| Altitude | 35000 |
| Route | ADMEX Y321 CPT UN859 SOPIL DCT BALAN DCT EVPOK DCT NARAK DCT GAI DCT LOMRA DCT ROCAN DCT IBRAP DCT LUKEV N13 LORES |
| Aircraft | A21N/M-SDE2E3FGHIJ1RWXY/LB1 |
Departure
| Time | 2026-05-04 09:08 |
|---|---|
| Airport | Birmingham Airport (EGBB) |
Arrival
| Time | N/A |
|---|---|
| Airport | Palma de Mallorca Airport (LEPA) |
| Time | Latitude | Longitude | Altitude | Speed | Heading |
|---|---|---|---|---|---|
| 2026-05-04 08:17 | 52.44970 | -1.73476 | 329 ft | 0 kts | 356° |
| 2026-05-04 08:19 | 52.44970 | -1.73477 | 329 ft | 0 kts | 356° |
| 2026-05-04 09:01 | 52.44923 | -1.73453 | 329 ft | 0 kts | 236° |
| 2026-05-04 09:03 | 52.44914 | -1.73477 | 329 ft | 4 kts | 236° |
| 2026-05-04 09:03 | 52.44901 | -1.73529 | 326 ft | 6 kts | 254° |
| 2026-05-04 09:03 | 52.44882 | -1.73597 | 329 ft | 8 kts | 238° |
| 2026-05-04 09:04 | 52.44844 | -1.73669 | 325 ft | 9 kts | 213° |
| 2026-05-04 09:04 | 52.44780 | -1.73709 | 328 ft | 11 kts | 196° |
| 2026-05-04 09:04 | 52.44701 | -1.73715 | 325 ft | 12 kts | 155° |
| 2026-05-04 09:04 | 52.44627 | -1.73635 | 328 ft | 13 kts | 145° |
| 2026-05-04 09:05 | 52.44551 | -1.73548 | 328 ft | 13 kts | 146° |
| 2026-05-04 09:05 | 52.44478 | -1.73468 | 329 ft | 10 kts | 146° |
| 2026-05-04 09:05 | 52.44429 | -1.73417 | 329 ft | 8 kts | 157° |
| 2026-05-04 09:05 | 52.44373 | -1.73431 | 327 ft | 9 kts | 223° |
| 2026-05-04 09:06 | 52.44333 | -1.73529 | 329 ft | 11 kts | 234° |
| 2026-05-04 09:07 | 52.45352 | -1.74757 | 326 ft | 141 kts | 326° |
| 2026-05-04 09:08 | 52.46279 | -1.75776 | 415 ft | 170 kts | 326° |
| 2026-05-04 09:08 | 52.47149 | -1.76842 | 1284 ft | 154 kts | 326° |
| 2026-05-04 09:08 | 52.48120 | -1.77912 | 1513 ft | 178 kts | 330° |
| 2026-05-04 09:08 | 52.49208 | -1.79078 | 1993 ft | 194 kts | 328° |
| 2026-05-04 09:09 | 52.50444 | -1.80093 | 2499 ft | 210 kts | 349° |
| 2026-05-04 09:09 | 52.51954 | -1.80033 | 2955 ft | 226 kts | 19° |
| 2026-05-04 09:09 | 52.53282 | -1.78649 | 3702 ft | 232 kts | 48° |